createdAt,value
2023-05-02T05:16:06.356Z,98951.44
2023-05-02T05:22:59.436Z,98957.63
2023-05-02T05:25:28.005Z,98956.09
2023-05-02T05:27:59.008Z,98958.34
2023-05-02T05:33:47.158Z,98958.63
2023-05-02T05:36:15.623Z,98960.44
2023-05-02T05:38:43.431Z,98964.84
2023-05-02T05:41:11.460Z,98968.94
2023-05-02T05:43:38.943Z,98974.28
2023-05-02T05:46:06.533Z,98970.53
2023-05-02T05:48:34.025Z,98976.31
2023-05-02T05:51:07.993Z,98969.84
2023-05-02T05:53:35.749Z,98975.06
2023-05-02T05:56:13.864Z,98985.78
2023-05-02T05:58:42.783Z,98979.63
2023-05-02T06:01:10.280Z,98985.16
2023-05-02T06:03:37.890Z,98986.88
2023-05-02T06:06:06.047Z,98982.69
2023-05-02T06:08:33.595Z,98992.53
2023-05-02T06:11:01.114Z,98987.88
2023-05-02T06:13:28.627Z,98994.22
2023-05-02T06:16:00.999Z,98996.25
2023-05-02T06:18:29.190Z,99003.00
2023-05-02T06:20:57.761Z,98993.69
2023-05-02T06:23:25.236Z,99008.84
2023-05-02T06:25:52.770Z,99014.81
2023-05-02T06:28:20.231Z,99022.22
2023-05-02T06:30:47.732Z,99017.44
2023-05-02T06:33:15.320Z,99029.22
2023-05-02T06:35:42.906Z,99028.50
2023-05-02T06:38:10.361Z,99022.66
2023-05-02T06:40:38.990Z,99026.44
2023-05-02T06:43:06.878Z,99020.63
2023-05-02T06:45:34.344Z,99020.66
2023-05-02T06:48:01.835Z,99026.66
2023-05-02T06:50:30.291Z,99034.97
2023-05-02T06:52:57.812Z,99036.50
2023-05-02T06:55:25.852Z,99036.13
2023-05-02T06:57:55.757Z,99035.16
2023-05-02T07:00:23.632Z,99035.00
2023-05-02T07:02:51.276Z,99037.38
2023-05-02T07:05:18.999Z,99028.03
2023-05-02T07:07:46.734Z,99024.88
2023-05-02T07:10:14.590Z,99034.72
2023-05-02T07:12:42.016Z,99032.72
2023-05-02T07:15:10.364Z,99028.84
2023-05-02T07:17:37.929Z,99037.47
2023-05-02T07:20:07.055Z,99027.00
2023-05-02T07:22:34.717Z,99030.34
2023-05-02T07:25:03.241Z,99028.38
2023-05-02T07:27:30.947Z,99030.09
2023-05-02T07:29:58.797Z,99039.31
2023-05-02T07:32:26.817Z,99033.88
2023-05-02T07:34:55.124Z,99035.66
2023-05-02T07:37:23.482Z,99037.50
2023-05-02T07:39:51.110Z,99029.91
2023-05-02T07:42:18.590Z,99038.66
2023-05-02T07:44:46.143Z,99025.13
2023-05-02T07:47:13.601Z,99012.53
2023-05-02T07:49:41.227Z,99013.88
2023-05-02T07:52:08.727Z,99022.41
2023-05-02T07:54:36.198Z,99021.19
2023-05-02T07:57:05.309Z,99027.78
2023-05-02T07:59:33.317Z,99011.38
2023-05-02T08:02:01.068Z,99018.31
2023-05-02T08:04:28.845Z,99020.81
2023-05-02T08:06:57.063Z,99022.97
2023-05-02T08:09:24.631Z,99021.69
2023-05-02T08:11:52.236Z,99026.31
2023-05-02T08:14:19.701Z,99023.16
2023-05-02T08:16:47.454Z,99023.69
2023-05-02T08:19:15.973Z,99017.25
2023-05-02T08:21:43.784Z,99028.44
2023-05-02T08:24:11.683Z,99033.91
2023-05-02T08:26:39.243Z,99032.28
2023-05-02T08:29:06.733Z,99030.28
2023-05-02T08:31:34.622Z,99038.38
2023-05-02T08:34:02.206Z,99036.53
2023-05-02T08:36:29.613Z,99039.78
2023-05-02T08:38:57.095Z,99044.06
2023-05-02T08:41:29.018Z,99047.41
2023-05-02T08:43:58.078Z,99034.00
2023-05-02T08:46:26.786Z,99043.72
2023-05-02T08:48:59.008Z,99042.59
2023-05-02T08:51:29.215Z,99041.81
2023-05-02T08:53:57.359Z,99048.81
2023-05-02T08:56:25.413Z,99052.16
2023-05-02T08:58:53.117Z,99050.59
2023-05-02T09:01:28.087Z,99055.84
2023-05-02T09:03:57.696Z,99050.91
2023-05-02T09:06:27.607Z,99054.38
2023-05-02T09:08:55.485Z,99060.34
2023-05-02T09:11:23.125Z,99058.59
2023-05-02T09:13:52.723Z,99052.88
2023-05-02T09:16:27.261Z,99058.50
2023-05-02T09:18:58.990Z,99045.22
2023-05-02T09:21:40.385Z,99051.81
2023-05-02T09:24:22.449Z,99056.91
2023-05-02T09:27:06.119Z,99054.09
2023-05-02T09:29:39.047Z,99059.09
2023-05-02T09:32:07.514Z,99061.44
2023-05-02T09:34:37.439Z,99067.84
2023-05-02T09:37:05.802Z,99067.19
2023-05-02T09:39:33.312Z,99071.72
2023-05-02T09:42:01.623Z,99062.41
2023-05-02T09:44:39.287Z,99064.94
2023-05-02T09:47:09.031Z,99061.09
2023-05-02T09:49:46.261Z,99053.09
2023-05-02T09:52:23.972Z,99052.31
2023-05-02T09:54:52.812Z,99054.72
2023-05-02T09:57:20.729Z,99056.69
2023-05-02T09:59:59.123Z,99058.72
2023-05-02T10:02:30.502Z,99058.78
2023-05-02T10:04:59.263Z,99049.19
2023-05-02T10:07:27.272Z,99055.03
2023-05-02T10:09:58.529Z,99050.28
2023-05-02T10:12:30.105Z,99053.59
2023-05-02T10:15:05.946Z,99059.22
2023-05-02T10:17:43.622Z,99057.25
2023-05-02T10:20:16.595Z,99060.53
2023-05-02T10:22:45.436Z,99058.94
2023-05-02T10:25:13.700Z,99050.56
2023-05-02T10:27:42.048Z,99051.78
2023-05-02T10:30:10.633Z,99047.78
2023-05-02T10:32:39.023Z,99056.50
2023-05-02T10:35:08.398Z,99045.66
2023-05-02T10:37:39.787Z,99038.06
2023-05-02T10:40:13.219Z,99045.75
2023-05-02T10:42:51.223Z,99009.91
2023-05-02T10:45:38.795Z,99040.63
2023-05-02T10:48:20.915Z,99039.81
2023-05-02T10:51:01.395Z,99039.78
2023-05-02T10:53:39.737Z,99033.00
2023-05-02T10:56:22.194Z,99046.19
2023-05-02T10:58:53.683Z,99034.63
2023-05-02T11:01:29.825Z,99039.81
2023-05-02T11:04:11.357Z,99033.34
2023-05-02T11:06:57.464Z,99030.53
2023-05-02T11:09:24.764Z,99032.50
2023-05-02T11:11:54.350Z,99041.63
2023-05-02T11:14:43.454Z,99035.59
2023-05-02T11:17:11.205Z,99029.84
2023-05-02T11:19:38.510Z,99028.22
2023-05-02T11:22:20.941Z,99030.16
2023-05-02T11:24:50.724Z,99020.59
2023-05-02T11:27:30.530Z,99036.09
2023-05-02T11:30:09.603Z,99027.97
2023-05-02T11:32:46.864Z,99028.63
2023-05-02T11:35:32.975Z,99021.03
2023-05-02T11:38:12.599Z,99010.91
2023-05-02T11:40:40.433Z,99018.22
2023-05-02T11:43:18.635Z,99008.75
2023-05-02T11:45:46.433Z,99008.25
2023-05-02T11:48:18.926Z,99000.44
2023-05-02T11:51:07.474Z,99004.28
2023-05-02T11:53:40.634Z,99016.13
2023-05-02T11:56:09.167Z,99004.44
2023-05-02T11:58:36.632Z,98994.00
2023-05-02T12:01:17.653Z,98998.84
2023-05-02T12:03:45.828Z,98996.84
2023-05-02T12:06:21.061Z,99003.25
2023-05-02T12:08:49.490Z,99002.72
2023-05-02T12:11:17.651Z,98996.47
2023-05-02T12:13:50.085Z,98999.59
2023-05-02T12:16:19.479Z,98998.56
2023-05-02T12:18:48.529Z,99002.56
2023-05-02T12:21:17.906Z,99002.88
2023-05-02T12:23:45.997Z,98998.66
2023-05-02T12:26:29.606Z,99000.38
2023-05-02T12:28:58.451Z,98993.97
2023-05-02T12:31:31.577Z,98985.34
2023-05-02T12:34:01.179Z,98995.63
2023-05-02T12:36:29.621Z,98986.34
2023-05-02T12:39:00.306Z,98999.84
2023-05-02T12:41:43.701Z,98998.31
2023-05-02T12:44:11.206Z,98996.50
2023-05-02T12:46:57.333Z,98990.06
2023-05-02T12:49:24.790Z,98998.91
2023-05-02T12:51:58.804Z,98987.25
2023-05-02T12:54:26.908Z,98984.09
2023-05-02T12:56:54.495Z,98983.03
2023-05-02T12:59:32.866Z,98979.91
2023-05-02T13:02:01.031Z,98975.66
2023-05-02T13:04:41.593Z,98986.06
2023-05-02T13:07:09.218Z,98968.81
2023-05-02T13:09:37.197Z,98973.28
2023-05-02T13:12:06.265Z,98973.25
2023-05-02T13:14:33.959Z,98981.13
2023-05-02T13:17:01.841Z,98973.19
2023-05-02T13:19:31.528Z,98978.50
2023-05-02T13:21:59.618Z,98989.66
2023-05-02T13:24:27.687Z,98974.94
2023-05-02T13:26:55.910Z,98978.28
2023-05-02T13:29:23.435Z,98976.44
2023-05-02T13:31:50.934Z,98971.69
2023-05-02T13:34:18.456Z,98964.84
2023-05-02T13:36:46.538Z,98970.84
2023-05-02T13:39:14.262Z,98962.28
2023-05-02T13:41:41.888Z,98967.56
2023-05-02T13:44:09.577Z,98969.06
2023-05-02T13:46:38.074Z,98967.53
2023-05-02T13:49:06.401Z,98963.50
2023-05-02T13:51:33.947Z,98964.13
2023-05-02T13:54:01.823Z,98961.75
2023-05-02T13:56:29.522Z,98956.97
2023-05-02T13:58:57.039Z,98960.72
2023-05-02T14:01:26.789Z,98964.09
2023-05-02T14:03:54.900Z,98960.94
2023-05-02T14:06:22.690Z,98957.34
2023-05-02T14:08:51.534Z,98944.38
2023-05-02T14:11:19.033Z,98953.16
2023-05-02T14:13:46.791Z,98956.72
2023-05-02T14:16:14.291Z,98957.94
2023-05-02T14:18:41.950Z,98955.59
2023-05-02T14:21:09.341Z,98960.47
2023-05-02T14:23:36.898Z,98956.06
2023-05-02T14:26:04.531Z,98957.41
2023-05-02T14:28:32.377Z,98957.16
2023-05-02T14:30:59.900Z,98956.56
2023-05-02T14:33:28.641Z,98956.09
2023-05-02T14:35:56.234Z,98955.56
2023-05-02T14:38:23.709Z,98952.22
2023-05-02T14:40:51.479Z,98957.44
2023-05-02T14:43:19.171Z,98951.91
2023-05-02T14:45:46.638Z,98952.13
2023-05-02T14:48:14.346Z,98948.91
2023-05-02T14:50:41.883Z,98952.31
2023-05-02T14:53:09.472Z,98954.06
2023-05-02T14:55:39.398Z,98951.66
2023-05-02T14:58:12.047Z,98950.28
2023-05-02T15:00:39.618Z,98954.34
2023-05-02T15:03:09.854Z,98950.19
2023-05-02T15:05:37.640Z,98959.66
2023-05-02T15:08:05.953Z,98960.44
2023-05-02T15:10:39.352Z,98953.56
2023-05-02T15:13:07.727Z,98954.66
2023-05-02T15:15:35.595Z,98955.66
2023-05-02T15:18:03.564Z,98957.63
2023-05-02T15:20:31.105Z,98960.56
2023-05-02T15:23:03.310Z,98957.34
2023-05-02T15:25:31.386Z,98955.47
2023-05-02T15:27:58.998Z,98955.47
2023-05-02T15:30:26.459Z,98957.38
2023-05-02T15:32:54.133Z,98956.25
2023-05-02T15:35:21.661Z,98961.75
2023-05-02T15:37:49.188Z,98966.72
2023-05-02T15:40:16.943Z,98963.69
2023-05-02T15:42:44.377Z,98960.09
2023-05-02T15:45:14.930Z,98946.78
2023-05-02T15:47:42.412Z,98953.28
2023-05-02T15:50:11.177Z,98959.47
2023-05-02T15:52:39.002Z,98952.19
2023-05-02T15:55:06.956Z,98963.84
2023-05-02T15:57:34.616Z,98957.94
2023-05-02T16:00:02.589Z,98957.09
2023-05-02T16:02:31.203Z,98964.00
2023-05-02T16:04:58.690Z,98960.28
2023-05-02T16:07:26.137Z,98967.72
2023-05-02T16:09:53.575Z,98962.03
2023-05-02T16:12:21.086Z,98954.53
2023-05-02T16:14:48.655Z,98963.38
2023-05-02T16:17:16.259Z,98958.97
2023-05-02T16:19:43.934Z,98957.88
2023-05-02T16:22:11.529Z,98964.66
2023-05-02T16:24:39.055Z,98971.56
2023-05-02T16:27:06.593Z,98979.34
2023-05-02T16:29:34.044Z,98978.50
2023-05-02T16:32:01.929Z,98969.09
2023-05-02T16:34:33.541Z,98983.91
2023-05-02T16:37:02.560Z,98980.75
2023-05-02T16:39:31.266Z,98992.69
2023-05-02T16:41:58.709Z,98996.63
2023-05-02T16:44:26.254Z,98996.72
2023-05-02T16:46:53.940Z,98999.53
2023-05-02T16:49:21.501Z,98998.13
2023-05-02T16:51:53.844Z,99015.09
2023-05-02T16:54:21.516Z,99016.34
2023-05-02T16:56:49.027Z,99024.50
2023-05-02T16:59:16.479Z,99018.69
2023-05-02T17:01:44.011Z,99004.78
2023-05-02T17:04:11.629Z,99008.66
2023-05-02T17:06:39.467Z,99008.66
2023-05-02T17:09:07.498Z,98992.94
2023-05-02T17:11:35.010Z,99014.19
2023-05-02T17:14:02.665Z,99019.75
2023-05-02T17:16:30.180Z,99023.63
2023-05-02T17:18:57.782Z,99023.47
2023-05-02T17:21:25.229Z,99020.75
2023-05-02T17:23:52.658Z,99020.13
2023-05-02T17:26:20.179Z,99019.63
2023-05-02T17:28:50.325Z,99004.66
2023-05-02T17:31:18.386Z,99016.53
2023-05-02T17:33:46.533Z,99025.75
2023-05-02T17:36:17.876Z,99020.59
2023-05-02T17:38:46.119Z,99027.97
2023-05-02T17:41:15.052Z,99032.66
2023-05-02T17:43:43.185Z,99049.41
2023-05-02T17:46:11.134Z,99045.97
2023-05-02T17:48:45.771Z,99049.69
2023-05-02T17:51:13.463Z,99052.56
2023-05-02T17:53:41.313Z,99057.47
2023-05-02T17:56:09.003Z,99057.84
2023-05-02T17:58:37.492Z,99058.47
2023-05-02T18:01:14.019Z,99065.25
2023-05-02T18:03:41.974Z,99072.00
2023-05-02T18:06:15.328Z,99056.16
2023-05-02T18:08:43.907Z,99067.00
2023-05-02T18:11:21.153Z,99075.38
2023-05-02T18:13:49.910Z,99069.84
2023-05-02T18:16:17.510Z,99074.72
2023-05-02T18:18:45.527Z,99072.25
2023-05-02T18:21:22.969Z,99069.19
2023-05-02T18:23:52.738Z,99070.56
2023-05-02T18:26:20.343Z,99064.34
2023-05-02T18:28:53.216Z,99072.31
2023-05-02T18:31:21.258Z,99066.34
2023-05-02T18:33:48.855Z,99065.63
2023-05-02T18:36:20.835Z,99073.19
2023-05-02T18:38:49.110Z,99080.44
2023-05-02T18:41:17.628Z,99084.00
2023-05-02T18:43:45.041Z,99079.63
2023-05-02T18:46:12.552Z,99085.25
2023-05-02T18:48:40.281Z,99094.03
2023-05-02T18:51:07.863Z,99078.09
2023-05-02T18:53:35.262Z,99089.22
2023-05-02T18:56:02.947Z,99098.00
2023-05-02T18:58:30.806Z,99092.44
2023-05-02T19:00:58.305Z,99090.84
2023-05-02T19:03:26.911Z,99092.44
2023-05-02T19:05:54.470Z,99094.81
2023-05-02T19:08:22.789Z,99096.03
2023-05-02T19:10:50.255Z,99099.97
2023-05-02T19:13:17.946Z,99098.00
2023-05-02T19:15:45.480Z,99099.63
2023-05-02T19:18:13.586Z,99096.78
2023-05-02T19:20:41.120Z,99106.38
2023-05-02T19:23:19.691Z,99112.34
2023-05-02T19:25:48.198Z,99129.53
2023-05-02T19:28:18.596Z,99124.19
2023-05-02T19:30:46.082Z,99125.75
2023-05-02T19:33:13.676Z,99127.81
2023-05-02T19:35:41.253Z,99134.59
2023-05-02T19:38:09.340Z,99133.75
2023-05-02T19:40:36.905Z,99130.53
2023-05-02T19:43:04.303Z,99123.31
2023-05-02T19:45:31.878Z,99139.31
2023-05-02T19:47:59.438Z,99136.44
2023-05-02T19:50:26.994Z,99131.16
2023-05-02T19:52:54.476Z,99135.22
2023-05-02T19:55:22.098Z,99139.66
2023-05-02T19:57:49.603Z,99141.25
2023-05-02T20:00:17.485Z,99152.84
2023-05-02T20:02:45.171Z,99149.25
2023-05-02T20:05:12.878Z,99154.38
2023-05-02T20:07:40.387Z,99156.78
2023-05-02T20:10:09.360Z,99158.22
2023-05-02T20:12:36.811Z,99155.94
2023-05-02T20:15:05.207Z,99162.06
2023-05-02T20:17:32.815Z,99157.75
2023-05-02T20:20:02.460Z,99160.44
2023-05-02T20:22:30.125Z,99158.75
2023-05-02T20:24:57.570Z,99156.41
2023-05-02T20:27:25.040Z,99163.38
2023-05-02T20:29:52.488Z,99158.94
2023-05-02T20:32:19.951Z,99165.00
2023-05-02T20:34:47.456Z,99178.47
2023-05-02T20:37:14.959Z,99175.00
2023-05-02T20:39:42.429Z,99176.16
2023-05-02T20:42:10.143Z,99170.94
2023-05-02T20:44:37.950Z,99176.94
2023-05-02T20:47:05.481Z,99183.22
2023-05-02T20:49:33.799Z,99183.94
2023-05-02T20:52:05.910Z,99180.84
2023-05-02T20:54:33.381Z,99181.59
2023-05-02T20:57:00.909Z,99175.91
2023-05-02T20:59:28.433Z,99176.81
2023-05-02T21:01:56.051Z,99173.25
2023-05-02T21:04:23.680Z,99170.25
2023-05-02T21:06:51.309Z,99174.91
2023-05-02T21:09:19.020Z,99169.25
2023-05-02T21:11:46.954Z,99171.88
2023-05-02T21:14:14.540Z,99172.66
2023-05-02T21:16:42.146Z,99176.31
2023-05-02T21:19:09.740Z,99180.88
2023-05-02T21:21:37.218Z,99175.53
2023-05-02T21:24:05.372Z,99174.84
2023-05-02T21:26:32.907Z,99178.84
2023-05-02T21:29:00.464Z,99170.75
2023-05-02T21:31:27.935Z,99166.34
2023-05-02T21:33:55.376Z,99180.81
2023-05-02T21:36:22.844Z,99173.13
2023-05-02T21:38:50.774Z,99172.09
2023-05-02T21:41:18.211Z,99176.22
2023-05-02T21:43:46.074Z,99173.25
2023-05-02T21:46:13.909Z,99177.84
2023-05-02T21:48:41.620Z,99181.34
2023-05-02T21:51:11.976Z,99178.09
2023-05-02T21:53:40.003Z,99179.91
2023-05-02T21:56:08.806Z,99189.09
2023-05-02T21:58:36.446Z,99192.28
2023-05-02T22:01:04.077Z,99190.63
2023-05-02T22:03:33.879Z,99187.59
2023-05-02T22:06:06.414Z,99184.03
2023-05-02T22:08:34.583Z,99186.75
2023-05-02T22:11:09.804Z,99188.88
2023-05-02T22:13:37.553Z,99194.13
2023-05-02T22:16:05.791Z,99194.25
2023-05-02T22:18:33.322Z,99196.31
2023-05-02T22:21:01.683Z,99193.00
2023-05-02T22:23:31.123Z,99191.81
2023-05-02T22:25:58.943Z,99192.47
2023-05-02T22:28:27.045Z,99195.28
2023-05-02T22:30:54.935Z,99199.78
2023-05-02T22:33:23.622Z,99192.00
2023-05-02T22:35:51.062Z,99194.69
2023-05-02T22:38:20.738Z,99192.75
2023-05-02T22:40:48.255Z,99193.06
2023-05-02T22:43:16.226Z,99193.16
2023-05-02T22:45:43.906Z,99185.34
2023-05-02T22:48:12.242Z,99192.78
2023-05-02T22:50:40.212Z,99181.00
2023-05-02T22:53:09.563Z,99189.78
2023-05-02T22:55:39.141Z,99193.59
2023-05-02T22:58:06.562Z,99193.69
2023-05-02T23:00:34.221Z,99195.00
2023-05-02T23:03:02.539Z,99191.41
2023-05-02T23:05:30.266Z,99190.22
2023-05-02T23:07:58.164Z,99188.25
2023-05-02T23:10:25.690Z,99186.41
2023-05-02T23:12:53.136Z,99194.38
2023-05-02T23:15:20.947Z,99187.47
2023-05-02T23:17:48.814Z,99189.13
2023-05-02T23:20:19.653Z,99185.16
2023-05-02T23:22:47.224Z,99183.66
2023-05-02T23:25:15.866Z,99179.03
2023-05-02T23:27:43.404Z,99181.53
2023-05-02T23:30:12.226Z,99184.22
2023-05-02T23:32:39.975Z,99180.63
2023-05-02T23:35:11.149Z,99182.38
2023-05-02T23:37:41.102Z,99187.81
